Terminal Aerodrome Forecast
Issued by NWS Burlington, VT

Home | Current Version | Previous Version | Text Only | Print | Product List | Glossary On
Versions: 1 2 3 4 5 6 7 8 9 10 11 12
000
FTUS41 KBTV 221133
TAFBTV
TAF
KBTV 221133Z 2212/2312 18005KT P6SM BKN030
     FM221500 18005KT P6SM BKN035
     FM221800 18004KT P6SM SCT150
     FM222300 16004KT P6SM SCT025 BKN100
     FM230200 17008KT 4SM BR OVC022
     FM231100 17012KT 6SM BR BKN020=

USA.gov is the U.S. government's official web portal to all federal, state and local government web resources and services.